sensor_id;sensor_type;location;lat;lon;timestamp;P1;durP1;ratioP1;P2;durP2;ratioP2
42760;SDS011;31672;47.638;19.026;2024-03-25T00:00:54;1.87;;;1.10;;
42760;SDS011;31672;47.638;19.026;2024-03-25T00:05:56;2.00;;;1.20;;
42760;SDS011;31672;47.638;19.026;2024-03-25T00:10:59;2.37;;;1.10;;
42760;SDS011;31672;47.638;19.026;2024-03-25T00:16:01;3.57;;;1.07;;
42760;SDS011;31672;47.638;19.026;2024-03-25T00:21:04;2.20;;;1.20;;
42760;SDS011;31672;47.638;19.026;2024-03-25T00:26:06;3.93;;;1.10;;
42760;SDS011;31672;47.638;19.026;2024-03-25T00:31:09;3.83;;;1.17;;
42760;SDS011;31672;47.638;19.026;2024-03-25T00:36:11;3.43;;;1.00;;
42760;SDS011;31672;47.638;19.026;2024-03-25T00:41:14;2.43;;;1.00;;
42760;SDS011;31672;47.638;19.026;2024-03-25T00:46:17;2.43;;;1.40;;
42760;SDS011;31672;47.638;19.026;2024-03-25T00:51:19;4.03;;;1.13;;
42760;SDS011;31672;47.638;19.026;2024-03-25T00:56:22;2.43;;;1.00;;
42760;SDS011;31672;47.638;19.026;2024-03-25T01:01:25;1.87;;;1.03;;
42760;SDS011;31672;47.638;19.026;2024-03-25T01:06:29;1.73;;;0.90;;
42760;SDS011;31672;47.638;19.026;2024-03-25T01:11:31;1.90;;;0.87;;
42760;SDS011;31672;47.638;19.026;2024-03-25T01:16:34;2.23;;;0.90;;
42760;SDS011;31672;47.638;19.026;2024-03-25T01:21:36;2.30;;;1.17;;
42760;SDS011;31672;47.638;19.026;2024-03-25T01:26:39;1.90;;;1.00;;
42760;SDS011;31672;47.638;19.026;2024-03-25T01:31:41;3.43;;;1.10;;
42760;SDS011;31672;47.638;19.026;2024-03-25T01:36:43;2.07;;;1.00;;
42760;SDS011;31672;47.638;19.026;2024-03-25T01:41:46;2.17;;;0.87;;
42760;SDS011;31672;47.638;19.026;2024-03-25T01:46:48;1.60;;;0.90;;
42760;SDS011;31672;47.638;19.026;2024-03-25T01:51:50;1.13;;;0.63;;
42760;SDS011;31672;47.638;19.026;2024-03-25T01:56:53;1.40;;;0.80;;
42760;SDS011;31672;47.638;19.026;2024-03-25T02:01:57;2.03;;;1.03;;
42760;SDS011;31672;47.638;19.026;2024-03-25T02:06:59;2.27;;;0.93;;
42760;SDS011;31672;47.638;19.026;2024-03-25T02:12:03;2.87;;;1.03;;
42760;SDS011;31672;47.638;19.026;2024-03-25T02:17:07;3.93;;;1.30;;
42760;SDS011;31672;47.638;19.026;2024-03-25T02:22:10;3.13;;;1.13;;
42760;SDS011;31672;47.638;19.026;2024-03-25T02:27:13;1.90;;;0.90;;
42760;SDS011;31672;47.638;19.026;2024-03-25T02:32:17;1.63;;;0.73;;
42760;SDS011;31672;47.638;19.026;2024-03-25T02:37:20;1.30;;;0.87;;
42760;SDS011;31672;47.638;19.026;2024-03-25T02:42:22;1.90;;;0.93;;
42760;SDS011;31672;47.638;19.026;2024-03-25T02:47:26;3.47;;;0.90;;
42760;SDS011;31672;47.638;19.026;2024-03-25T02:52:29;4.90;;;1.20;;
42760;SDS011;31672;47.638;19.026;2024-03-25T02:57:31;3.17;;;1.50;;
42760;SDS011;31672;47.638;19.026;2024-03-25T03:02:34;2.43;;;1.03;;
42760;SDS011;31672;47.638;19.026;2024-03-25T03:07:37;2.33;;;0.80;;
42760;SDS011;31672;47.638;19.026;2024-03-25T03:12:39;1.97;;;0.80;;
42760;SDS011;31672;47.638;19.026;2024-03-25T03:17:43;4.23;;;1.00;;
42760;SDS011;31672;47.638;19.026;2024-03-25T03:22:45;2.00;;;1.10;;
42760;SDS011;31672;47.638;19.026;2024-03-25T03:27:47;2.37;;;0.97;;
42760;SDS011;31672;47.638;19.026;2024-03-25T03:32:50;1.67;;;1.00;;
42760;SDS011;31672;47.638;19.026;2024-03-25T03:37:52;2.87;;;0.80;;
42760;SDS011;31672;47.638;19.026;2024-03-25T03:42:55;1.40;;;0.60;;
42760;SDS011;31672;47.638;19.026;2024-03-25T03:47:57;1.60;;;0.70;;
42760;SDS011;31672;47.638;19.026;2024-03-25T03:52:59;1.40;;;0.60;;
42760;SDS011;31672;47.638;19.026;2024-03-25T03:58:02;1.07;;;0.77;;
42760;SDS011;31672;47.638;19.026;2024-03-25T04:03:04;2.17;;;0.87;;
42760;SDS011;31672;47.638;19.026;2024-03-25T04:08:07;1.40;;;0.60;;
42760;SDS011;31672;47.638;19.026;2024-03-25T04:13:10;1.77;;;0.60;;
42760;SDS011;31672;47.638;19.026;2024-03-25T04:18:14;1.47;;;0.50;;
42760;SDS011;31672;47.638;19.026;2024-03-25T04:23:16;1.07;;;0.60;;
42760;SDS011;31672;47.638;19.026;2024-03-25T04:28:19;1.13;;;0.40;;
42760;SDS011;31672;47.638;19.026;2024-03-25T04:33:22;1.03;;;0.43;;
42760;SDS011;31672;47.638;19.026;2024-03-25T04:38:25;1.53;;;0.60;;
42760;SDS011;31672;47.638;19.026;2024-03-25T04:43:27;2.27;;;0.67;;
42760;SDS011;31672;47.638;19.026;2024-03-25T04:48:30;1.37;;;0.83;;
42760;SDS011;31672;47.638;19.026;2024-03-25T04:53:32;3.40;;;0.50;;
42760;SDS011;31672;47.638;19.026;2024-03-25T04:58:34;1.87;;;0.60;;
42760;SDS011;31672;47.638;19.026;2024-03-25T05:03:37;1.43;;;0.50;;
42760;SDS011;31672;47.638;19.026;2024-03-25T05:08:39;1.27;;;0.80;;
42760;SDS011;31672;47.638;19.026;2024-03-25T05:13:43;1.03;;;0.60;;
42760;SDS011;31672;47.638;19.026;2024-03-25T05:18:45;1.77;;;0.50;;
42760;SDS011;31672;47.638;19.026;2024-03-25T05:23:47;1.30;;;0.73;;
42760;SDS011;31672;47.638;19.026;2024-03-25T05:28:53;1.27;;;0.50;;
42760;SDS011;31672;47.638;19.026;2024-03-25T05:33:59;0.63;;;0.50;;
42760;SDS011;31672;47.638;19.026;2024-03-25T05:39:04;0.97;;;0.50;;
42760;SDS011;31672;47.638;19.026;2024-03-25T05:44:06;2.27;;;0.57;;
42760;SDS011;31672;47.638;19.026;2024-03-25T05:49:10;1.10;;;0.60;;
42760;SDS011;31672;47.638;19.026;2024-03-25T05:54:13;2.40;;;0.70;;
42760;SDS011;31672;47.638;19.026;2024-03-25T05:59:15;1.07;;;0.67;;
42760;SDS011;31672;47.638;19.026;2024-03-25T06:04:18;1.60;;;0.80;;
42760;SDS011;31672;47.638;19.026;2024-03-25T06:09:21;1.13;;;0.70;;
42760;SDS011;31672;47.638;19.026;2024-03-25T06:14:24;3.20;;;0.97;;
42760;SDS011;31672;47.638;19.026;2024-03-25T06:19:27;2.17;;;1.00;;
42760;SDS011;31672;47.638;19.026;2024-03-25T06:24:29;1.53;;;0.87;;
42760;SDS011;31672;47.638;19.026;2024-03-25T06:29:31;1.60;;;0.80;;
42760;SDS011;31672;47.638;19.026;2024-03-25T06:34:35;1.50;;;0.80;;
42760;SDS011;31672;47.638;19.026;2024-03-25T06:39:38;2.40;;;1.23;;
42760;SDS011;31672;47.638;19.026;2024-03-25T06:44:40;2.20;;;1.10;;
42760;SDS011;31672;47.638;19.026;2024-03-25T06:49:44;1.93;;;0.87;;
42760;SDS011;31672;47.638;19.026;2024-03-25T06:54:47;2.47;;;1.20;;
42760;SDS011;31672;47.638;19.026;2024-03-25T06:59:49;1.43;;;0.80;;
42760;SDS011;31672;47.638;19.026;2024-03-25T07:04:51;2.07;;;1.30;;
42760;SDS011;31672;47.638;19.026;2024-03-25T07:09:54;4.50;;;0.90;;
42760;SDS011;31672;47.638;19.026;2024-03-25T07:14:56;1.23;;;0.80;;
42760;SDS011;31672;47.638;19.026;2024-03-25T07:20:00;1.10;;;0.70;;
42760;SDS011;31672;47.638;19.026;2024-03-25T07:25:03;2.23;;;0.93;;
42760;SDS011;31672;47.638;19.026;2024-03-25T07:30:06;1.57;;;1.10;;
42760;SDS011;31672;47.638;19.026;2024-03-25T07:35:09;1.10;;;0.60;;
42760;SDS011;31672;47.638;19.026;2024-03-25T07:40:12;1.63;;;1.00;;
42760;SDS011;31672;47.638;19.026;2024-03-25T07:45:14;1.83;;;1.00;;
42760;SDS011;31672;47.638;19.026;2024-03-25T07:50:19;5.50;;;0.97;;
42760;SDS011;31672;47.638;19.026;2024-03-25T07:55:21;1.73;;;0.70;;
42760;SDS011;31672;47.638;19.026;2024-03-25T08:00:24;2.27;;;0.93;;
42760;SDS011;31672;47.638;19.026;2024-03-25T08:05:26;1.97;;;1.23;;
42760;SDS011;31672;47.638;19.026;2024-03-25T08:10:32;2.87;;;1.07;;
42760;SDS011;31672;47.638;19.026;2024-03-25T08:15:34;3.00;;;0.90;;
42760;SDS011;31672;47.638;19.026;2024-03-25T08:20:37;1.80;;;0.87;;
42760;SDS011;31672;47.638;19.026;2024-03-25T08:25:40;4.97;;;0.70;;
42760;SDS011;31672;47.638;19.026;2024-03-25T08:30:42;2.17;;;1.13;;
42760;SDS011;31672;47.638;19.026;2024-03-25T08:35:44;1.03;;;0.80;;
42760;SDS011;31672;47.638;19.026;2024-03-25T08:40:47;1.47;;;0.77;;
42760;SDS011;31672;47.638;19.026;2024-03-25T08:45:49;2.13;;;0.97;;
42760;SDS011;31672;47.638;19.026;2024-03-25T08:50:51;1.05;;;0.60;;
42760;SDS011;31672;47.638;19.026;2024-03-25T08:55:54;2.10;;;0.70;;
42760;SDS011;31672;47.638;19.026;2024-03-25T09:00:57;1.10;;;0.73;;
42760;SDS011;31672;47.638;19.026;2024-03-25T09:06:00;1.13;;;0.70;;
42760;SDS011;31672;47.638;19.026;2024-03-25T09:11:02;2.00;;;0.90;;
42760;SDS011;31672;47.638;19.026;2024-03-25T09:16:05;3.63;;;0.90;;
42760;SDS011;31672;47.638;19.026;2024-03-25T09:21:07;3.23;;;0.97;;
42760;SDS011;31672;47.638;19.026;2024-03-25T09:26:09;1.90;;;0.80;;
42760;SDS011;31672;47.638;19.026;2024-03-25T09:31:13;1.53;;;0.90;;
42760;SDS011;31672;47.638;19.026;2024-03-25T09:36:15;1.27;;;0.70;;
42760;SDS011;31672;47.638;19.026;2024-03-25T09:41:17;1.13;;;0.70;;
42760;SDS011;31672;47.638;19.026;2024-03-25T09:46:20;2.37;;;0.70;;
42760;SDS011;31672;47.638;19.026;2024-03-25T09:51:24;2.00;;;0.70;;
42760;SDS011;31672;47.638;19.026;2024-03-25T09:56:27;3.73;;;1.07;;
42760;SDS011;31672;47.638;19.026;2024-03-25T10:01:29;1.17;;;0.53;;
42760;SDS011;31672;47.638;19.026;2024-03-25T10:06:33;1.27;;;0.60;;
42760;SDS011;31672;47.638;19.026;2024-03-25T10:11:35;1.67;;;0.85;;
42760;SDS011;31672;47.638;19.026;2024-03-25T10:16:38;1.55;;;0.73;;
42760;SDS011;31672;47.638;19.026;2024-03-25T10:21:40;0.87;;;0.60;;
42760;SDS011;31672;47.638;19.026;2024-03-25T10:26:42;1.40;;;0.80;;
42760;SDS011;31672;47.638;19.026;2024-03-25T10:31:46;1.73;;;0.80;;
42760;SDS011;31672;47.638;19.026;2024-03-25T10:36:48;1.53;;;0.67;;
42760;SDS011;31672;47.638;19.026;2024-03-25T10:41:50;1.70;;;0.80;;
42760;SDS011;31672;47.638;19.026;2024-03-25T10:46:55;2.57;;;1.17;;
42760;SDS011;31672;47.638;19.026;2024-03-25T10:52:03;1.97;;;1.10;;
42760;SDS011;31672;47.638;19.026;2024-03-25T10:57:07;1.50;;;1.00;;
42760;SDS011;31672;47.638;19.026;2024-03-25T11:02:12;3.87;;;1.20;;
42760;SDS011;31672;47.638;19.026;2024-03-25T11:07:15;3.70;;;1.47;;
42760;SDS011;31672;47.638;19.026;2024-03-25T11:12:18;4.67;;;1.63;;
42760;SDS011;31672;47.638;19.026;2024-03-25T11:17:20;1.30;;;0.70;;
42760;SDS011;31672;47.638;19.026;2024-03-25T11:22:25;3.03;;;1.15;;
42760;SDS011;31672;47.638;19.026;2024-03-25T11:27:28;3.20;;;1.00;;
42760;SDS011;31672;47.638;19.026;2024-03-25T11:32:40;2.43;;;1.07;;
42760;SDS011;31672;47.638;19.026;2024-03-25T11:37:51;2.70;;;1.27;;
42760;SDS011;31672;47.638;19.026;2024-03-25T11:42:54;2.17;;;0.80;;
42760;SDS011;31672;47.638;19.026;2024-03-25T11:47:57;1.97;;;0.77;;
42760;SDS011;31672;47.638;19.026;2024-03-25T11:53:03;1.77;;;0.57;;
42760;SDS011;31672;47.638;19.026;2024-03-25T11:58:07;4.45;;;0.70;;
42760;SDS011;31672;47.638;19.026;2024-03-25T12:03:10;1.40;;;0.60;;
42760;SDS011;31672;47.638;19.026;2024-03-25T12:08:16;2.63;;;1.00;;
42760;SDS011;31672;47.638;19.026;2024-03-25T12:13:19;2.33;;;0.90;;
42760;SDS011;31672;47.638;19.026;2024-03-25T12:18:21;1.90;;;1.10;;
42760;SDS011;31672;47.638;19.026;2024-03-25T12:23:28;2.70;;;0.90;;
42760;SDS011;31672;47.638;19.026;2024-03-25T12:28:34;1.52;;;0.75;;
42760;SDS011;31672;47.638;19.026;2024-03-25T12:33:43;1.77;;;1.00;;
42760;SDS011;31672;47.638;19.026;2024-03-25T12:38:53;2.93;;;0.80;;
42760;SDS011;31672;47.638;19.026;2024-03-25T12:44:00;18.08;;;7.72;;
42760;SDS011;31672;47.638;19.026;2024-03-25T12:49:02;1.52;;;0.82;;
42760;SDS011;31672;47.638;19.026;2024-03-25T12:54:05;35.28;;;13.55;;
42760;SDS011;31672;47.638;19.026;2024-03-25T12:59:07;7.55;;;4.32;;
42760;SDS011;31672;47.638;19.026;2024-03-25T13:04:09;1.58;;;0.90;;
42760;SDS011;31672;47.638;19.026;2024-03-25T13:09:12;2.75;;;2.10;;
42760;SDS011;31672;47.638;19.026;2024-03-25T13:14:15;1.63;;;1.05;;
42760;SDS011;31672;47.638;19.026;2024-03-25T13:19:18;2.10;;;0.70;;
42760;SDS011;31672;47.638;19.026;2024-03-25T13:24:20;2.25;;;0.80;;
42760;SDS011;31672;47.638;19.026;2024-03-25T13:29:22;0.90;;;0.57;;
42760;SDS011;31672;47.638;19.026;2024-03-25T13:34:24;3.00;;;0.50;;
42760;SDS011;31672;47.638;19.026;2024-03-25T13:39:26;0.40;;;0.30;;
42760;SDS011;31672;47.638;19.026;2024-03-25T13:44:30;0.93;;;0.40;;
42760;SDS011;31672;47.638;19.026;2024-03-25T13:49:36;0.47;;;0.40;;
42760;SDS011;31672;47.638;19.026;2024-03-25T13:54:39;0.93;;;0.50;;
42760;SDS011;31672;47.638;19.026;2024-03-25T13:59:41;0.98;;;0.60;;
42760;SDS011;31672;47.638;19.026;2024-03-25T14:04:44;0.50;;;0.47;;
42760;SDS011;31672;47.638;19.026;2024-03-25T14:09:47;1.63;;;0.60;;
42760;SDS011;31672;47.638;19.026;2024-03-25T14:14:49;1.05;;;0.52;;
42760;SDS011;31672;47.638;19.026;2024-03-25T14:19:53;0.50;;;0.50;;
42760;SDS011;31672;47.638;19.026;2024-03-25T14:24:58;1.10;;;0.45;;
42760;SDS011;31672;47.638;19.026;2024-03-25T14:30:00;1.05;;;0.60;;
42760;SDS011;31672;47.638;19.026;2024-03-25T14:35:04;1.95;;;0.70;;
42760;SDS011;31672;47.638;19.026;2024-03-25T14:40:07;1.80;;;0.73;;
42760;SDS011;31672;47.638;19.026;2024-03-25T14:45:10;1.70;;;0.90;;
42760;SDS011;31672;47.638;19.026;2024-03-25T14:50:12;3.72;;;0.90;;
42760;SDS011;31672;47.638;19.026;2024-03-25T14:55:15;1.98;;;0.70;;
42760;SDS011;31672;47.638;19.026;2024-03-25T15:00:18;0.85;;;0.40;;
42760;SDS011;31672;47.638;19.026;2024-03-25T15:05:22;1.60;;;0.70;;
42760;SDS011;31672;47.638;19.026;2024-03-25T15:10:24;0.77;;;0.50;;
42760;SDS011;31672;47.638;19.026;2024-03-25T15:15:28;0.52;;;0.40;;
42760;SDS011;31672;47.638;19.026;2024-03-25T15:20:36;1.15;;;0.70;;
42760;SDS011;31672;47.638;19.026;2024-03-25T15:25:38;1.33;;;0.50;;
42760;SDS011;31672;47.638;19.026;2024-03-25T15:30:41;1.23;;;0.70;;
42760;SDS011;31672;47.638;19.026;2024-03-25T15:35:44;1.48;;;0.70;;
42760;SDS011;31672;47.638;19.026;2024-03-25T15:40:46;2.80;;;0.70;;
42760;SDS011;31672;47.638;19.026;2024-03-25T15:45:54;0.90;;;0.70;;
42760;SDS011;31672;47.638;19.026;2024-03-25T15:51:03;3.20;;;0.82;;
42760;SDS011;31672;47.638;19.026;2024-03-25T15:56:06;1.87;;;0.80;;
42760;SDS011;31672;47.638;19.026;2024-03-25T16:01:09;3.27;;;0.90;;
42760;SDS011;31672;47.638;19.026;2024-03-25T16:06:12;2.03;;;0.90;;
42760;SDS011;31672;47.638;19.026;2024-03-25T16:11:18;1.27;;;0.67;;
42760;SDS011;31672;47.638;19.026;2024-03-25T16:16:22;2.40;;;0.70;;
42760;SDS011;31672;47.638;19.026;2024-03-25T16:21:24;1.70;;;0.97;;
42760;SDS011;31672;47.638;19.026;2024-03-25T16:26:27;1.40;;;0.70;;
42760;SDS011;31672;47.638;19.026;2024-03-25T16:31:30;6.57;;;2.33;;
42760;SDS011;31672;47.638;19.026;2024-03-25T16:36:34;3.37;;;1.30;;
42760;SDS011;31672;47.638;19.026;2024-03-25T16:41:37;1.83;;;1.30;;
42760;SDS011;31672;47.638;19.026;2024-03-25T16:46:40;4.77;;;2.60;;
42760;SDS011;31672;47.638;19.026;2024-03-25T16:51:43;22.30;;;7.67;;
42760;SDS011;31672;47.638;19.026;2024-03-25T16:56:46;26.10;;;9.90;;
42760;SDS011;31672;47.638;19.026;2024-03-25T17:01:48;58.07;;;18.97;;
42760;SDS011;31672;47.638;19.026;2024-03-25T17:06:51;37.30;;;13.27;;
42760;SDS011;31672;47.638;19.026;2024-03-25T17:11:54;26.77;;;9.90;;
42760;SDS011;31672;47.638;19.026;2024-03-25T17:16:56;17.33;;;8.20;;
42760;SDS011;31672;47.638;19.026;2024-03-25T17:21:58;20.00;;;8.30;;
42760;SDS011;31672;47.638;19.026;2024-03-25T17:27:01;16.80;;;8.00;;
42760;SDS011;31672;47.638;19.026;2024-03-25T17:32:05;21.63;;;9.63;;
42760;SDS011;31672;47.638;19.026;2024-03-25T17:37:08;25.47;;;11.07;;
42760;SDS011;31672;47.638;19.026;2024-03-25T17:42:10;19.90;;;8.57;;
42760;SDS011;31672;47.638;19.026;2024-03-25T17:47:14;9.67;;;3.47;;
42760;SDS011;31672;47.638;19.026;2024-03-25T17:52:17;5.83;;;2.47;;
42760;SDS011;31672;47.638;19.026;2024-03-25T17:57:19;6.93;;;2.80;;
42760;SDS011;31672;47.638;19.026;2024-03-25T18:02:22;9.03;;;3.30;;
42760;SDS011;31672;47.638;19.026;2024-03-25T18:07:25;36.73;;;11.90;;
42760;SDS011;31672;47.638;19.026;2024-03-25T18:12:27;15.17;;;6.03;;
42760;SDS011;31672;47.638;19.026;2024-03-25T18:17:30;7.47;;;2.47;;
42760;SDS011;31672;47.638;19.026;2024-03-25T18:22:32;5.80;;;1.63;;
42760;SDS011;31672;47.638;19.026;2024-03-25T18:27:35;2.47;;;1.20;;
42760;SDS011;31672;47.638;19.026;2024-03-25T18:32:37;8.93;;;4.13;;
42760;SDS011;31672;47.638;19.026;2024-03-25T18:37:40;7.90;;;3.33;;
42760;SDS011;31672;47.638;19.026;2024-03-25T18:42:43;9.80;;;4.00;;
42760;SDS011;31672;47.638;19.026;2024-03-25T18:47:45;4.73;;;2.27;;
42760;SDS011;31672;47.638;19.026;2024-03-25T18:52:48;7.90;;;3.50;;
42760;SDS011;31672;47.638;19.026;2024-03-25T18:57:51;8.67;;;2.23;;
42760;SDS011;31672;47.638;19.026;2024-03-25T19:02:53;6.93;;;3.00;;
42760;SDS011;31672;47.638;19.026;2024-03-25T19:07:55;9.87;;;4.13;;
42760;SDS011;31672;47.638;19.026;2024-03-25T19:12:58;7.30;;;3.83;;
42760;SDS011;31672;47.638;19.026;2024-03-25T19:18:01;3.17;;;1.50;;
42760;SDS011;31672;47.638;19.026;2024-03-25T19:23:04;1.80;;;1.00;;
42760;SDS011;31672;47.638;19.026;2024-03-25T19:28:06;3.60;;;1.50;;
42760;SDS011;31672;47.638;19.026;2024-03-25T19:33:08;2.30;;;1.50;;
42760;SDS011;31672;47.638;19.026;2024-03-25T19:38:11;3.03;;;1.23;;
42760;SDS011;31672;47.638;19.026;2024-03-25T19:43:13;18.37;;;6.57;;
42760;SDS011;31672;47.638;19.026;2024-03-25T19:48:15;14.80;;;6.00;;
42760;SDS011;31672;47.638;19.026;2024-03-25T19:53:18;17.53;;;6.77;;
42760;SDS011;31672;47.638;19.026;2024-03-25T19:58:21;26.30;;;9.70;;
42760;SDS011;31672;47.638;19.026;2024-03-25T20:03:23;8.27;;;3.60;;
42760;SDS011;31672;47.638;19.026;2024-03-25T20:08:26;12.17;;;5.43;;
42760;SDS011;31672;47.638;19.026;2024-03-25T20:13:28;9.10;;;4.70;;
42760;SDS011;31672;47.638;19.026;2024-03-25T20:18:30;8.30;;;3.67;;
42760;SDS011;31672;47.638;19.026;2024-03-25T20:23:33;10.23;;;3.60;;
42760;SDS011;31672;47.638;19.026;2024-03-25T20:28:37;17.40;;;6.83;;
42760;SDS011;31672;47.638;19.026;2024-03-25T20:33:39;14.03;;;6.73;;
42760;SDS011;31672;47.638;19.026;2024-03-25T20:38:41;10.50;;;4.90;;
42760;SDS011;31672;47.638;19.026;2024-03-25T20:43:44;10.13;;;4.27;;
42760;SDS011;31672;47.638;19.026;2024-03-25T20:48:48;7.53;;;3.77;;
42760;SDS011;31672;47.638;19.026;2024-03-25T20:53:50;6.63;;;3.27;;
42760;SDS011;31672;47.638;19.026;2024-03-25T20:58:53;7.73;;;3.63;;
42760;SDS011;31672;47.638;19.026;2024-03-25T21:03:55;15.87;;;6.37;;
42760;SDS011;31672;47.638;19.026;2024-03-25T21:08:58;27.67;;;10.10;;
42760;SDS011;31672;47.638;19.026;2024-03-25T21:14:01;20.93;;;10.27;;
42760;SDS011;31672;47.638;19.026;2024-03-25T21:19:03;24.80;;;9.30;;
42760;SDS011;31672;47.638;19.026;2024-03-25T21:24:06;33.13;;;11.40;;
42760;SDS011;31672;47.638;19.026;2024-03-25T21:29:09;34.93;;;12.07;;
42760;SDS011;31672;47.638;19.026;2024-03-25T21:34:11;26.67;;;11.13;;
42760;SDS011;31672;47.638;19.026;2024-03-25T21:39:14;27.47;;;10.27;;
42760;SDS011;31672;47.638;19.026;2024-03-25T21:44:19;19.70;;;7.60;;
42760;SDS011;31672;47.638;19.026;2024-03-25T21:49:41;19.23;;;7.63;;
42760;SDS011;31672;47.638;19.026;2024-03-25T21:55:20;13.17;;;5.47;;
42760;SDS011;31672;47.638;19.026;2024-03-25T22:00:59;8.80;;;4.40;;
42760;SDS011;31672;47.638;19.026;2024-03-25T22:06:02;7.93;;;3.80;;
42760;SDS011;31672;47.638;19.026;2024-03-25T22:11:05;10.33;;;4.40;;
42760;SDS011;31672;47.638;19.026;2024-03-25T22:16:07;10.23;;;3.97;;
42760;SDS011;31672;47.638;19.026;2024-03-25T22:21:09;5.87;;;2.90;;
42760;SDS011;31672;47.638;19.026;2024-03-25T22:26:12;8.17;;;3.63;;
42760;SDS011;31672;47.638;19.026;2024-03-25T22:31:14;6.23;;;3.00;;
42760;SDS011;31672;47.638;19.026;2024-03-25T22:36:17;7.57;;;2.83;;
42760;SDS011;31672;47.638;19.026;2024-03-25T22:41:19;5.43;;;2.43;;
42760;SDS011;31672;47.638;19.026;2024-03-25T22:46:21;8.20;;;3.43;;
42760;SDS011;31672;47.638;19.026;2024-03-25T22:51:23;8.90;;;3.50;;
42760;SDS011;31672;47.638;19.026;2024-03-25T22:56:26;9.37;;;2.90;;
42760;SDS011;31672;47.638;19.026;2024-03-25T23:01:28;8.37;;;3.47;;
42760;SDS011;31672;47.638;19.026;2024-03-25T23:06:31;6.30;;;3.00;;
42760;SDS011;31672;47.638;19.026;2024-03-25T23:11:33;7.93;;;3.60;;
42760;SDS011;31672;47.638;19.026;2024-03-25T23:16:39;7.10;;;2.57;;
42760;SDS011;31672;47.638;19.026;2024-03-25T23:21:41;4.30;;;1.83;;
42760;SDS011;31672;47.638;19.026;2024-03-25T23:26:44;6.60;;;2.70;;
42760;SDS011;31672;47.638;19.026;2024-03-25T23:31:46;9.53;;;3.80;;
42760;SDS011;31672;47.638;19.026;2024-03-25T23:36:49;7.60;;;3.40;;
42760;SDS011;31672;47.638;19.026;2024-03-25T23:41:54;12.03;;;4.13;;
42760;SDS011;31672;47.638;19.026;2024-03-25T23:46:57;11.50;;;3.10;;
42760;SDS011;31672;47.638;19.026;2024-03-25T23:52:00;6.13;;;3.20;;
42760;SDS011;31672;47.638;19.026;2024-03-25T23:57:06;4.50;;;2.30;;
